Time;durP1;ratioP1;P1;durP2;ratioP2;P2;SDS_P1;SDS_P2;PMS_P1;PMS_P2;Temp;Humidity;BMP_temperature;BMP_pressure;BME280_temperature;BME280_humidity;BME280_pressure;Samples;Min_cycle;Max_cycle;Signal;HPM_P1;HPM_P2
2023/11/07 00:02:23;;;;;;;;;2.67;2.33;;;;;-144.24;100.00;60536.00;4985946;28;45708;-71
2023/11/07 00:04:48;;;;;;;;;2.00;2.00;;;;;-144.24;100.00;60536.00;4980177;28;46511;-71
2023/11/07 00:07:28;;;;;;;;;1.33;1.00;;;;;-144.24;100.00;60536.00;4978053;28;45583;-70
2023/11/07 00:09:56;;;;;;;;;2.00;2.00;;;;;-144.24;100.00;60536.00;4975646;28;45549;-71
2023/11/07 00:12:22;;;;;;;;;3.00;2.00;;;;;-144.24;100.00;60536.00;4985875;28;45613;-71
2023/11/07 00:14:47;;;;;;;;;2.00;2.00;;;;;-144.24;100.00;60536.00;4986746;28;75087;-72
2023/11/07 00:17:12;;;;;;;;;2.00;2.00;;;;;-144.24;100.00;60536.00;5004951;28;45517;-70
2023/11/07 00:19:38;;;;;;;;;3.00;3.00;;;;;-144.24;100.00;60536.00;4984468;28;45547;-72
2023/11/07 00:22:03;;;;;;;;;4.00;2.00;;;;;-144.24;100.00;60536.00;4982935;28;45302;-71
2023/11/07 00:24:29;;;;;;;;;4.00;2.00;;;;;-144.24;100.00;60536.00;4985092;28;73328;-70
2023/11/07 00:26:54;;;;;;;;;1.00;1.00;;;;;-144.24;100.00;60536.00;4985956;28;73716;-71
2023/11/07 00:29:23;;;;;;;;;3.00;2.67;;;;;-144.24;100.00;60536.00;4981559;28;45421;-72
2023/11/07 00:31:50;;;;;;;;;1.00;1.00;;;;;-144.24;100.00;60536.00;4984007;28;45427;-70
2023/11/07 00:34:16;;;;;;;;;2.00;2.00;;;;;-144.24;100.00;60536.00;4981726;28;46461;-70
2023/11/07 00:36:43;;;;;;;;;2.00;2.00;;;;;-144.24;100.00;60536.00;4993566;28;45494;-70
2023/11/07 00:39:08;;;;;;;;;2.00;2.00;;;;;-144.24;100.00;60536.00;4985123;28;45323;-72
2023/11/07 00:41:33;;;;;;;;;2.00;2.00;;;;;-144.24;100.00;60536.00;4982387;28;45422;-71
2023/11/07 00:44:01;;;;;;;;;3.33;3.00;;;;;-144.24;100.00;60536.00;4986628;28;45603;-71
2023/11/07 00:46:26;;;;;;;;;4.00;2.00;;;;;-144.24;100.00;60536.00;4977122;28;45435;-71
2023/11/07 00:48:52;;;;;;;;;1.67;1.67;;;;;-144.24;100.00;60536.00;4985757;28;45437;-72
2023/11/07 00:51:17;;;;;;;;;1.00;1.00;;;;;-144.24;100.00;60536.00;4988039;28;67581;-70
2023/11/07 00:53:43;;;;;;;;;4.67;2.00;;;;;-144.24;100.00;60536.00;4988480;28;75993;-70
2023/11/07 00:56:09;;;;;;;;;2.33;1.00;;;;;-144.24;100.00;60536.00;4983598;28;45325;-72
2023/11/07 00:58:34;;;;;;;;;1.00;1.00;;;;;-144.24;100.00;60536.00;4977541;28;45365;-71
2023/11/07 01:01:00;;;;;;;;;3.00;1.00;;;;;-144.24;100.00;60536.00;4987176;28;45239;-73
2023/11/07 01:03:26;;;;;;;;;1.00;1.00;;;;;-144.24;100.00;60536.00;4981210;28;45549;-69
2023/11/07 01:05:51;;;;;;;;;1.67;1.67;;;;;-144.24;100.00;60536.00;4988825;28;45273;-71
2023/11/07 01:08:18;;;;;;;;;3.00;2.00;;;;;-144.24;100.00;60536.00;4981464;28;45655;-70
2023/11/07 01:10:43;;;;;;;;;1.33;1.33;;;;;-144.24;100.00;60536.00;4990963;28;45177;-70
2023/11/07 01:13:09;;;;;;;;;1.00;1.00;;;;;-144.24;100.00;60536.00;4988210;28;46243;-72
2023/11/07 01:15:34;;;;;;;;;2.00;1.00;;;;;-144.24;100.00;60536.00;4977855;28;69790;-70
2023/11/07 01:18:00;;;;;;;;;1.00;1.00;;;;;-144.24;100.00;60536.00;4981915;28;69297;-70
2023/11/07 01:20:26;;;;;;;;;1.00;1.00;;;;;-144.24;100.00;60536.00;4984852;28;45386;-70
2023/11/07 01:22:51;;;;;;;;;0.00;0.00;;;;;-144.24;100.00;60536.00;4988966;28;46474;-70
2023/11/07 01:25:17;;;;;;;;;0.00;0.00;;;;;-144.24;100.00;60536.00;4985563;28;45247;-71
2023/11/07 01:27:42;;;;;;;;;0.00;0.00;;;;;-144.24;100.00;60536.00;4979662;28;45466;-71
2023/11/07 01:30:09;;;;;;;;;1.33;0.00;;;;;-144.24;100.00;60536.00;4981492;28;67122;-71
2023/11/07 01:32:36;;;;;;;;;2.00;1.00;;;;;-144.24;100.00;60536.00;4981309;28;46698;-70
2023/11/07 01:35:01;;;;;;;;;2.33;0.33;;;;;-144.24;100.00;60536.00;4977238;28;45270;-70
2023/11/07 01:37:27;;;;;;;;;0.00;0.00;;;;;-144.24;100.00;60536.00;5001308;28;46317;-72
2023/11/07 01:39:52;;;;;;;;;1.67;1.00;;;;;-144.24;100.00;60536.00;4987915;28;45394;-70
2023/11/07 01:42:17;;;;;;;;;4.00;0.00;;;;;-144.24;100.00;60536.00;4976648;28;74306;-70
2023/11/07 01:44:50;;;;;;;;;2.00;1.00;;;;;-144.24;100.00;60536.00;4976638;28;45287;-70
2023/11/07 01:47:23;;;;;;;;;0.00;0.00;;;;;-144.24;100.00;60536.00;4990126;28;45602;-70
2023/11/07 01:49:48;;;;;;;;;2.00;0.00;;;;;-144.24;100.00;60536.00;4976993;28;46163;-71
2023/11/07 01:52:17;;;;;;;;;3.33;1.00;;;;;-144.24;100.00;60536.00;4986737;28;46497;-70
2023/11/07 01:54:44;;;;;;;;;1.00;1.00;;;;;-144.24;100.00;60536.00;4978514;28;45438;-70
2023/11/07 01:57:13;;;;;;;;;0.00;0.00;;;;;-144.24;100.00;60536.00;4983807;28;45589;-70
2023/11/07 01:59:39;;;;;;;;;0.00;0.00;;;;;-144.24;100.00;60536.00;4978747;28;45393;-70
2023/11/07 02:02:10;;;;;;;;;0.00;0.00;;;;;-144.24;100.00;60536.00;4988758;28;46072;-71
2023/11/07 02:04:35;;;;;;;;;0.00;0.00;;;;;-144.24;100.00;60536.00;4982091;28;45536;-71
2023/11/07 02:07:00;;;;;;;;;1.67;0.67;;;;;-144.24;100.00;60536.00;4984066;28;45310;-70
2023/11/07 02:09:26;;;;;;;;;1.00;1.00;;;;;-144.24;100.00;60536.00;4983666;28;67231;-70
2023/11/07 02:11:51;;;;;;;;;0.00;0.00;;;;;-144.24;100.00;60536.00;4989772;28;71548;-70
2023/11/07 02:14:29;;;;;;;;;2.00;0.67;;;;;-144.24;100.00;60536.00;4976759;28;45379;-70
2023/11/07 02:16:55;;;;;;;;;2.00;0.00;;;;;-144.24;100.00;60536.00;4992605;28;45419;-72
2023/11/07 02:19:20;;;;;;;;;0.00;0.00;;;;;-144.24;100.00;60536.00;4976731;28;52122;-72
2023/11/07 02:21:46;;;;;;;;;1.00;0.00;;;;;-144.24;100.00;60536.00;4982850;28;51407;-72
2023/11/07 02:24:12;;;;;;;;;0.67;0.00;;;;;-144.24;100.00;60536.00;4978582;28;65497;-71
2023/11/07 02:26:37;;;;;;;;;2.00;1.00;;;;;-144.24;100.00;60536.00;4976773;28;53022;-73
2023/11/07 02:29:03;;;;;;;;;0.00;0.00;;;;;-144.24;100.00;60536.00;4975047;28;67231;-71
2023/11/07 02:31:28;;;;;;;;;2.00;1.00;;;;;-144.24;100.00;60536.00;4978656;28;46265;-71
2023/11/07 02:33:53;;;;;;;;;1.33;1.00;;;;;-144.24;100.00;60536.00;4981578;28;72952;-70
2023/11/07 02:36:19;;;;;;;;;1.33;0.00;;;;;-144.24;100.00;60536.00;4975256;28;65258;-71
2023/11/07 02:38:44;;;;;;;;;2.00;0.00;;;;;-144.24;100.00;60536.00;4982868;28;45522;-72
2023/11/07 02:41:09;;;;;;;;;0.67;0.67;;;;;-144.24;100.00;60536.00;4982329;28;47496;-70
2023/11/07 02:43:35;;;;;;;;;2.00;1.00;;;;;-144.24;100.00;60536.00;4984964;28;72697;-71
2023/11/07 02:46:00;;;;;;;;;1.33;0.67;;;;;-144.24;100.00;60536.00;4976202;28;45335;-71
2023/11/07 02:48:26;;;;;;;;;3.00;0.00;;;;;-144.24;100.00;60536.00;4984140;28;45577;-71
2023/11/07 02:50:51;;;;;;;;;0.00;0.00;;;;;-144.24;100.00;60536.00;4974609;28;72569;-71
2023/11/07 02:53:16;;;;;;;;;1.33;1.00;;;;;-144.24;100.00;60536.00;4981678;28;45375;-70
2023/11/07 02:55:42;;;;;;;;;0.00;0.00;;;;;-144.24;100.00;60536.00;4977460;28;67852;-72
2023/11/07 02:58:08;;;;;;;;;0.67;0.33;;;;;-144.24;100.00;60536.00;4989082;28;45353;-71
2023/11/07 03:00:34;;;;;;;;;1.00;0.00;;;;;-144.24;100.00;60536.00;4978889;28;46317;-71
2023/11/07 03:02:59;;;;;;;;;1.00;1.00;;;;;-144.24;100.00;60536.00;4988630;28;45420;-73
2023/11/07 03:05:25;;;;;;;;;1.00;0.00;;;;;-144.24;100.00;60536.00;4986534;28;45538;-70
2023/11/07 03:07:50;;;;;;;;;4.00;1.00;;;;;-144.24;100.00;60536.00;4986141;28;45208;-72
2023/11/07 03:10:16;;;;;;;;;1.00;1.00;;;;;-144.24;100.00;60536.00;4979468;28;75356;-70
2023/11/07 03:12:41;;;;;;;;;1.00;1.00;;;;;-144.24;100.00;60536.00;4984975;28;45382;-72
2023/11/07 03:15:07;;;;;;;;;2.33;1.00;;;;;-144.24;100.00;60536.00;4984575;28;45411;-72
2023/11/07 03:17:32;;;;;;;;;2.33;1.00;;;;;-144.24;100.00;60536.00;4982967;28;45578;-72
2023/11/07 03:19:58;;;;;;;;;4.00;1.00;;;;;-144.24;100.00;60536.00;4988059;28;46701;-71
2023/11/07 03:22:26;;;;;;;;;1.33;1.00;;;;;-144.24;100.00;60536.00;4996060;28;45452;-70
2023/11/07 03:24:51;;;;;;;;;2.00;0.33;;;;;-144.24;100.00;60536.00;4998671;28;45492;-69
2023/11/07 03:27:17;;;;;;;;;1.00;1.00;;;;;-144.24;100.00;60536.00;4982813;28;45612;-72
2023/11/07 03:29:42;;;;;;;;;3.67;1.00;;;;;-144.24;100.00;60536.00;4982873;28;60841;-70
2023/11/07 03:32:07;;;;;;;;;1.00;1.00;;;;;-144.24;100.00;60536.00;4988513;28;71915;-71
2023/11/07 03:34:33;;;;;;;;;1.00;1.00;;;;;-144.24;100.00;60536.00;4982601;28;46014;-71
2023/11/07 03:36:59;;;;;;;;;0.67;0.33;;;;;-144.24;100.00;60536.00;4985868;28;69117;-71
2023/11/07 03:39:24;;;;;;;;;4.00;1.00;;;;;-144.24;100.00;60536.00;4983916;28;46227;-70
2023/11/07 03:41:51;;;;;;;;;3.00;0.00;;;;;-144.24;100.00;60536.00;4997028;28;45477;-72
2023/11/07 03:44:16;;;;;;;;;2.00;1.00;;;;;-144.24;100.00;60536.00;5001085;28;45244;-71
2023/11/07 03:46:42;;;;;;;;;1.67;0.00;;;;;-144.24;100.00;60536.00;4978462;28;45320;-72
2023/11/07 03:49:07;;;;;;;;;1.00;1.00;;;;;-144.24;100.00;60536.00;4979142;28;46695;-73
2023/11/07 03:51:33;;;;;;;;;1.67;1.00;;;;;-144.24;100.00;60536.00;4981451;28;72150;-71
2023/11/07 03:53:58;;;;;;;;;0.00;0.00;;;;;-144.24;100.00;60536.00;4988032;28;45905;-70
2023/11/07 03:56:23;;;;;;;;;2.00;0.67;;;;;-144.24;100.00;60536.00;4993392;28;61648;-72
2023/11/07 03:58:48;;;;;;;;;5.00;1.00;;;;;-144.24;100.00;60536.00;4984461;28;74987;-72
2023/11/07 04:01:14;;;;;;;;;1.67;1.00;;;;;-144.24;100.00;60536.00;4978456;28;72424;-72
2023/11/07 04:03:39;;;;;;;;;1.00;1.00;;;;;-144.24;100.00;60536.00;4978960;28;56816;-71
2023/11/07 04:06:05;;;;;;;;;0.33;0.33;;;;;-144.24;100.00;60536.00;4994384;28;61367;-71
2023/11/07 04:08:30;;;;;;;;;2.00;1.00;;;;;-144.24;100.00;60536.00;4981910;28;46124;-70
2023/11/07 04:10:56;;;;;;;;;1.33;1.33;;;;;-144.24;100.00;60536.00;4977557;28;45284;-71
2023/11/07 04:13:21;;;;;;;;;1.00;1.00;;;;;-144.24;100.00;60536.00;4981892;28;45478;-72
2023/11/07 04:15:47;;;;;;;;;1.00;1.00;;;;;-144.24;100.00;60536.00;4982901;28;46075;-70
2023/11/07 04:18:13;;;;;;;;;1.67;1.00;;;;;-144.24;100.00;60536.00;4977703;28;46427;-71
2023/11/07 04:20:41;;;;;;;;;1.33;1.00;;;;;-144.24;100.00;60536.00;4977842;28;45431;-72
2023/11/07 04:23:09;;;;;;;;;1.67;1.00;;;;;-144.24;100.00;60536.00;4971141;28;45994;-70
2023/11/07 04:25:34;;;;;;;;;1.00;1.00;;;;;-144.24;100.00;60536.00;4979861;28;45238;-71
2023/11/07 04:28:00;;;;;;;;;2.00;2.00;;;;;-144.24;100.00;60536.00;4986857;28;46804;-71
2023/11/07 04:30:25;;;;;;;;;0.67;0.67;;;;;-144.24;100.00;60536.00;4986337;28;45352;-71
2023/11/07 04:32:50;;;;;;;;;3.33;2.00;;;;;-144.24;100.00;60536.00;4988602;28;45475;-72
2023/11/07 04:35:16;;;;;;;;;4.00;2.33;;;;;-144.24;100.00;60536.00;4980921;28;45276;-71
2023/11/07 04:37:42;;;;;;;;;1.67;1.67;;;;;-144.24;100.00;60536.00;4995787;28;72830;-72
2023/11/07 04:40:08;;;;;;;;;3.00;1.33;;;;;-144.24;100.00;60536.00;4980907;28;45407;-71
2023/11/07 04:42:33;;;;;;;;;1.67;1.67;;;;;-144.24;100.00;60536.00;4980429;28;45470;-70
2023/11/07 04:44:59;;;;;;;;;1.33;0.00;;;;;-144.24;100.00;60536.00;4978161;28;67496;-71
2023/11/07 04:47:24;;;;;;;;;2.00;0.67;;;;;-144.24;100.00;60536.00;4982376;28;45729;-72
2023/11/07 04:49:50;;;;;;;;;2.00;1.00;;;;;-144.24;100.00;60536.00;4978946;28;71824;-72
2023/11/07 04:52:15;;;;;;;;;2.67;1.00;;;;;-144.24;100.00;60536.00;4981692;28;45398;-70
2023/11/07 04:54:41;;;;;;;;;3.00;2.00;;;;;-144.24;100.00;60536.00;4977083;28;46748;-70
2023/11/07 04:57:06;;;;;;;;;1.00;1.00;;;;;-144.24;100.00;60536.00;4985293;28;46668;-70
2023/11/07 04:59:32;;;;;;;;;1.00;1.00;;;;;-144.24;100.00;60536.00;4986868;28;45375;-70
2023/11/07 05:01:58;;;;;;;;;1.00;1.00;;;;;-144.24;100.00;60536.00;4983109;28;45486;-71
2023/11/07 05:04:23;;;;;;;;;1.00;1.00;;;;;-144.24;100.00;60536.00;4989032;28;45420;-72
2023/11/07 05:06:51;;;;;;;;;1.67;1.67;;;;;-144.24;100.00;60536.00;4990796;28;75670;-71
2023/11/07 05:09:17;;;;;;;;;3.00;1.00;;;;;-144.24;100.00;60536.00;4990987;28;45403;-71
2023/11/07 05:11:43;;;;;;;;;4.00;2.00;;;;;-144.24;100.00;60536.00;4978694;28;45503;-70
2023/11/07 05:14:09;;;;;;;;;2.00;2.00;;;;;-144.24;100.00;60536.00;4977375;28;67803;-70
2023/11/07 05:16:37;;;;;;;;;3.00;1.00;;;;;-144.24;100.00;60536.00;4982160;28;45441;-70
2023/11/07 05:19:04;;;;;;;;;4.00;3.00;;;;;-144.24;100.00;60536.00;4981618;28;45386;-71
2023/11/07 05:21:30;;;;;;;;;1.00;1.00;;;;;-144.24;100.00;60536.00;4982050;28;45267;-70
2023/11/07 05:23:56;;;;;;;;;7.67;1.67;;;;;-144.24;100.00;60536.00;4977173;28;45505;-70
2023/11/07 05:26:22;;;;;;;;;3.00;1.67;;;;;-144.24;100.00;60536.00;4981680;28;75558;-71
2023/11/07 05:28:50;;;;;;;;;3.67;3.00;;;;;-144.24;100.00;60536.00;4985388;28;45465;-73
2023/11/07 05:31:16;;;;;;;;;3.00;1.00;;;;;-144.24;100.00;60536.00;4992083;28;45461;-73
2023/11/07 05:33:45;;;;;;;;;3.00;2.00;;;;;-144.24;100.00;60536.00;4989674;28;45482;-71
2023/11/07 05:36:11;;;;;;;;;3.67;2.00;;;;;-144.24;100.00;60536.00;4987278;28;46679;-71
2023/11/07 05:38:36;;;;;;;;;2.00;2.00;;;;;-144.24;100.00;60536.00;4985990;28;45525;-73
2023/11/07 05:41:02;;;;;;;;;1.00;1.00;;;;;-144.24;100.00;60536.00;4988507;28;45500;-70
2023/11/07 05:43:27;;;;;;;;;2.00;2.00;;;;;-144.24;100.00;60536.00;4983980;28;59114;-70
2023/11/07 05:45:52;;;;;;;;;2.00;2.00;;;;;-144.24;100.00;60536.00;4978283;28;45759;-72
2023/11/07 05:48:23;;;;;;;;;1.00;1.00;;;;;-144.24;100.00;60536.00;4978486;28;45814;-72
2023/11/07 05:50:50;;;;;;;;;1.00;1.00;;;;;-144.24;100.00;60536.00;4979114;28;45543;-71
2023/11/07 05:53:15;;;;;;;;;5.00;2.00;;;;;-144.24;100.00;60536.00;4982979;28;45370;-71
2023/11/07 05:55:41;;;;;;;;;3.00;2.00;;;;;-144.24;100.00;60536.00;4979191;28;47318;-71
2023/11/07 05:58:07;;;;;;;;;1.67;1.67;;;;;-144.24;100.00;60536.00;4982481;28;45437;-70
2023/11/07 06:00:33;;;;;;;;;4.00;2.00;;;;;-144.24;100.00;60536.00;4981421;28;45521;-70
2023/11/07 06:02:59;;;;;;;;;2.00;2.00;;;;;-144.24;100.00;60536.00;4987290;28;45618;-70
2023/11/07 06:05:24;;;;;;;;;3.00;3.00;;;;;-144.24;100.00;60536.00;4983797;28;46486;-71
2023/11/07 06:07:55;;;;;;;;;3.00;3.00;;;;;-144.24;100.00;60536.00;4978537;28;45209;-70
2023/11/07 06:10:21;;;;;;;;;4.00;2.00;;;;;-144.24;100.00;60536.00;4989477;28;45509;-71
2023/11/07 06:12:46;;;;;;;;;1.33;1.33;;;;;-144.24;100.00;60536.00;4988825;28;45654;-70
2023/11/07 06:15:11;;;;;;;;;2.00;2.00;;;;;-144.24;100.00;60536.00;4988021;28;46994;-71
2023/11/07 06:17:37;;;;;;;;;1.00;1.00;;;;;-144.24;100.00;60536.00;4986109;28;54664;-71
2023/11/07 06:20:03;;;;;;;;;4.00;2.00;;;;;-144.24;100.00;60536.00;4982611;28;45433;-72
2023/11/07 06:22:28;;;;;;;;;1.00;1.00;;;;;-144.24;100.00;60536.00;4977872;28;45576;-71
2023/11/07 06:24:53;;;;;;;;;5.00;2.00;;;;;-144.24;100.00;60536.00;4986372;28;65219;-71
2023/11/07 06:27:19;;;;;;;;;1.00;1.00;;;;;-144.24;100.00;60536.00;4983042;28;72653;-71
2023/11/07 06:29:44;;;;;;;;;3.00;2.00;;;;;-144.24;100.00;60536.00;4987991;28;45513;-71
2023/11/07 06:32:09;;;;;;;;;2.00;2.00;;;;;-144.24;100.00;60536.00;4979411;28;49439;-70
2023/11/07 06:34:35;;;;;;;;;1.00;1.00;;;;;-144.24;100.00;60536.00;4991554;28;45758;-70
2023/11/07 06:37:03;;;;;;;;;2.00;2.00;;;;;-144.24;100.00;60536.00;4982057;28;45351;-71
2023/11/07 06:39:29;;;;;;;;;2.33;2.00;;;;;-144.24;100.00;60536.00;4985805;28;45507;-71
2023/11/07 06:41:55;;;;;;;;;4.67;2.00;;;;;-144.24;100.00;60536.00;4989290;28;45518;-70
2023/11/07 06:44:20;;;;;;;;;2.67;2.67;;;;;-144.24;100.00;60536.00;5001825;28;45731;-70
2023/11/07 06:46:49;;;;;;;;;1.00;1.00;;;;;-144.24;100.00;60536.00;4982022;28;45617;-71
2023/11/07 06:49:14;;;;;;;;;2.00;2.00;;;;;-144.24;100.00;60536.00;4981945;28;45378;-71
2023/11/07 06:51:39;;;;;;;;;2.00;1.00;;;;;-144.24;100.00;60536.00;4981431;28;52612;-71
2023/11/07 06:54:05;;;;;;;;;2.33;2.33;;;;;-144.24;100.00;60536.00;4978612;28;74406;-70
2023/11/07 06:56:31;;;;;;;;;4.00;1.00;;;;;-144.24;100.00;60536.00;4981359;28;45383;-71
2023/11/07 06:58:57;;;;;;;;;4.67;2.00;;;;;-144.24;100.00;60536.00;4984633;28;45493;-71
2023/11/07 07:01:25;;;;;;;;;3.00;1.00;;;;;-144.24;100.00;60536.00;4985827;28;68118;-72
2023/11/07 07:03:51;;;;;;;;;2.00;2.00;;;;;-144.24;100.00;60536.00;4985501;28;45771;-71
2023/11/07 07:06:18;;;;;;;;;1.67;1.67;;;;;-144.24;100.00;60536.00;4987134;28;45350;-71
2023/11/07 07:08:43;;;;;;;;;2.00;2.00;;;;;-144.24;100.00;60536.00;4966787;28;45418;-70
2023/11/07 07:11:09;;;;;;;;;5.33;2.00;;;;;-144.24;100.00;60536.00;4965235;28;45381;-72
2023/11/07 07:13:34;;;;;;;;;2.67;2.67;;;;;-144.24;100.00;60536.00;4968280;28;53722;-73
2023/11/07 07:15:59;;;;;;;;;1.00;1.00;;;;;-144.24;100.00;60536.00;4971775;28;71644;-72
2023/11/07 07:18:27;;;;;;;;;3.67;2.00;;;;;-144.24;100.00;60536.00;4966389;28;45467;-73
2023/11/07 07:20:54;;;;;;;;;4.00;2.00;;;;;-144.24;100.00;60536.00;4971044;28;45535;-72
2023/11/07 07:23:24;;;;;;;;;3.00;2.00;;;;;-144.24;100.00;60536.00;4961999;28;46304;-72
2023/11/07 07:25:52;;;;;;;;;2.00;2.00;;;;;-144.24;100.00;60536.00;4976397;28;45470;-70
2023/11/07 07:28:19;;;;;;;;;2.00;2.00;;;;;-144.24;100.00;60536.00;4970970;28;45531;-72
2023/11/07 07:30:45;;;;;;;;;2.00;2.00;;;;;-144.24;100.00;60536.00;4967752;28;45337;-72
2023/11/07 07:33:10;;;;;;;;;2.67;1.67;;;;;-144.24;100.00;60536.00;4970141;28;46244;-72
2023/11/07 07:35:37;;;;;;;;;6.33;1.67;;;;;-144.24;100.00;60536.00;4962016;28;45573;-72
2023/11/07 07:38:03;;;;;;;;;5.33;3.00;;;;;-144.24;100.00;60536.00;4971565;28;45557;-71
2023/11/07 07:40:30;;;;;;;;;3.00;1.33;;;;;-144.24;100.00;60536.00;4976189;28;45454;-71
2023/11/07 07:42:58;;;;;;;;;1.67;1.00;;;;;-144.24;100.00;60536.00;4977097;28;47786;-72
2023/11/07 07:47:59;;;;;;;;;3.67;2.00;;;;;-144.24;100.00;60536.00;4940434;22;45839;-73
2023/11/07 07:50:25;;;;;;;;;3.00;1.00;;;;;-144.24;100.00;60536.00;4954357;28;45455;-72
2023/11/07 07:52:56;;;;;;;;;2.67;2.00;;;;;-144.24;100.00;60536.00;4954737;28;46785;-71
2023/11/07 07:55:21;;;;;;;;;6.33;2.00;;;;;-144.24;100.00;60536.00;4956403;28;46381;-72
2023/11/07 07:57:46;;;;;;;;;2.00;2.00;;;;;-144.24;100.00;60536.00;4957986;28;45324;-73
2023/11/07 08:00:12;;;;;;;;;5.67;3.00;;;;;-144.24;100.00;60536.00;4956127;28;45629;-72
2023/11/07 08:02:47;;;;;;;;;6.00;1.00;;;;;-144.24;100.00;60536.00;4954170;28;46325;-71
2023/11/07 08:05:17;;;;;;;;;2.67;2.00;;;;;-144.24;100.00;60536.00;4952155;28;72882;-71
2023/11/07 08:07:42;;;;;;;;;1.00;1.00;;;;;-144.24;100.00;60536.00;4953171;28;45632;-72
2023/11/07 08:10:16;;;;;;;;;3.00;2.00;;;;;-144.24;100.00;60536.00;4953895;28;45752;-71
2023/11/07 08:12:42;;;;;;;;;5.00;2.67;;;;;-144.24;100.00;60536.00;4955940;28;45491;-72
2023/11/07 08:15:08;;;;;;;;;3.67;1.00;;;;;-144.24;100.00;60536.00;4954697;28;45339;-74
2023/11/07 08:17:35;;;;;;;;;2.00;2.00;;;;;-144.24;100.00;60536.00;4948155;28;46790;-72
2023/11/07 08:20:01;;;;;;;;;3.00;2.67;;;;;-144.24;100.00;60536.00;4956371;28;45515;-73
2023/11/07 08:22:26;;;;;;;;;2.00;2.00;;;;;-144.24;100.00;60536.00;4955183;28;45514;-72
2023/11/07 08:24:52;;;;;;;;;5.67;2.00;;;;;-144.24;100.00;60536.00;4954772;28;57118;-70
2023/11/07 08:27:17;;;;;;;;;1.00;1.00;;;;;-144.24;100.00;60536.00;4955208;28;69010;-72
2023/11/07 08:29:45;;;;;;;;;3.00;2.00;;;;;-144.24;100.00;60536.00;4953556;28;64599;-72
2023/11/07 08:32:12;;;;;;;;;5.00;1.00;;;;;-144.24;100.00;60536.00;4951815;28;45768;-71
2023/11/07 08:34:40;;;;;;;;;4.00;2.67;;;;;-144.24;100.00;60536.00;4953418;28;45470;-72
2023/11/07 08:37:05;;;;;;;;;5.33;2.67;;;;;-144.24;100.00;60536.00;4956713;28;45477;-72
2023/11/07 08:39:30;;;;;;;;;3.67;2.00;;;;;-144.24;100.00;60536.00;4955603;28;66608;-73
2023/11/07 08:41:56;;;;;;;;;1.33;0.67;;;;;-144.24;100.00;60536.00;4953751;28;69872;-72
2023/11/07 08:44:22;;;;;;;;;4.00;2.33;;;;;-144.24;100.00;60536.00;4955257;28;72320;-72
2023/11/07 08:46:48;;;;;;;;;4.00;2.33;;;;;-144.24;100.00;60536.00;4953644;28;45425;-72
2023/11/07 08:49:16;;;;;;;;;8.00;2.00;;;;;-144.24;100.00;60536.00;4956791;28;45616;-73
2023/11/07 08:51:42;;;;;;;;;6.33;3.00;;;;;-144.24;100.00;60536.00;4953768;28;45751;-73
2023/11/07 08:54:07;;;;;;;;;3.33;2.00;;;;;-144.24;100.00;60536.00;4955666;28;45483;-71
2023/11/07 08:56:33;;;;;;;;;4.00;2.33;;;;;-144.24;100.00;60536.00;4956006;28;45430;-72
2023/11/07 08:58:58;;;;;;;;;4.33;3.00;;;;;-144.24;100.00;60536.00;4956530;28;47556;-71
2023/11/07 09:01:25;;;;;;;;;4.00;2.00;;;;;-144.24;100.00;60536.00;4951164;28;60038;-71
2023/11/07 09:03:51;;;;;;;;;3.67;2.00;;;;;-144.24;100.00;60536.00;4951991;28;45327;-74
2023/11/07 09:06:16;;;;;;;;;4.67;2.67;;;;;-144.24;100.00;60536.00;4947373;28;45525;-74
2023/11/07 09:08:42;;;;;;;;;8.33;3.00;;;;;-144.24;100.00;60536.00;4963792;28;46671;-73
2023/11/07 09:11:08;;;;;;;;;1.67;1.00;;;;;-144.24;100.00;60536.00;4955494;28;74600;-72
2023/11/07 09:13:33;;;;;;;;;2.67;2.00;;;;;-144.24;100.00;60536.00;4956070;28;45434;-73
2023/11/07 09:15:59;;;;;;;;;3.67;2.00;;;;;-144.24;100.00;60536.00;4948173;28;60434;-73
2023/11/07 09:18:26;;;;;;;;;2.33;2.00;;;;;-144.24;100.00;60536.00;4952898;28;45576;-73
2023/11/07 09:20:53;;;;;;;;;2.00;2.00;;;;;-144.24;100.00;60536.00;4946337;28;46777;-73
2023/11/07 09:23:18;;;;;;;;;2.00;2.00;;;;;-144.24;100.00;60536.00;4950749;28;45463;-71
2023/11/07 09:25:44;;;;;;;;;3.67;3.33;;;;;-144.24;100.00;60536.00;4951671;28;68276;-71
2023/11/07 09:28:10;;;;;;;;;2.67;2.00;;;;;-144.24;100.00;60536.00;4947721;28;45693;-71
2023/11/07 09:30:35;;;;;;;;;3.67;2.33;;;;;-144.24;100.00;60536.00;4949821;28;47071;-73
2023/11/07 09:33:02;;;;;;;;;2.67;2.00;;;;;-144.24;100.00;60536.00;4947785;28;45451;-71
2023/11/07 09:35:28;;;;;;;;;4.00;3.00;;;;;-144.24;100.00;60536.00;4949433;28;46434;-72
2023/11/07 09:37:54;;;;;;;;;3.00;2.00;;;;;-144.24;100.00;60536.00;4954692;28;45627;-73
2023/11/07 09:40:19;;;;;;;;;3.67;2.33;;;;;-144.24;100.00;60536.00;4943656;28;46925;-72
2023/11/07 09:42:45;;;;;;;;;2.00;2.00;;;;;-144.24;100.00;60536.00;4948691;28;65183;-74
2023/11/07 09:45:15;;;;;;;;;3.67;2.00;;;;;-144.24;100.00;60536.00;4946858;28;45466;-74
2023/11/07 09:47:45;;;;;;;;;2.00;2.00;;;;;-144.24;100.00;60536.00;4944223;28;45639;-73
2023/11/07 09:50:11;;;;;;;;;4.00;2.00;;;;;-144.24;100.00;60536.00;4944033;28;46454;-74
2023/11/07 09:52:38;;;;;;;;;5.33;2.33;;;;;-144.24;100.00;60536.00;4951419;28;73016;-73
2023/11/07 09:55:08;;;;;;;;;2.00;2.00;;;;;-144.24;100.00;60536.00;4949134;28;47371;-76
2023/11/07 09:57:35;;;;;;;;;3.00;3.00;;;;;-144.24;100.00;60536.00;4965311;28;45463;-73
2023/11/07 10:00:02;;;;;;;;;4.00;1.00;;;;;-144.24;100.00;60536.00;4950881;28;47583;-73
2023/11/07 10:02:27;;;;;;;;;4.00;2.00;;;;;-144.24;100.00;60536.00;4942931;28;45518;-72
2023/11/07 10:04:55;;;;;;;;;5.00;2.00;;;;;-144.24;100.00;60536.00;4946626;28;46833;-74
2023/11/07 10:07:21;;;;;;;;;4.00;2.00;;;;;-144.24;100.00;60536.00;4942931;28;46213;-73
2023/11/07 10:09:47;;;;;;;;;2.33;1.00;;;;;-144.24;100.00;60536.00;4949960;28;46465;-73
2023/11/07 10:12:15;;;;;;;;;2.33;2.00;;;;;-144.24;100.00;60536.00;4951797;28;45254;-74
2023/11/07 10:14:41;;;;;;;;;3.00;1.67;;;;;-144.24;100.00;60536.00;4947593;28;45418;-73
2023/11/07 10:17:07;;;;;;;;;3.00;2.00;;;;;-144.24;100.00;60536.00;4954571;28;45559;-73
2023/11/07 10:19:32;;;;;;;;;4.33;1.33;;;;;-144.24;100.00;60536.00;4949267;28;45590;-72
2023/11/07 10:22:06;;;;;;;;;4.33;1.67;;;;;-144.24;100.00;60536.00;4951269;28;45605;-72
2023/11/07 10:24:54;;;;;;;;;3.00;1.33;;;;;-144.24;100.00;60536.00;4945706;28;45504;-74
2023/11/07 10:27:28;;;;;;;;;3.00;2.00;;;;;-144.24;100.00;60536.00;4948678;28;45487;-71
2023/11/07 10:29:53;;;;;;;;;5.00;2.00;;;;;-144.24;100.00;60536.00;4949852;28;45913;-72
2023/11/07 10:32:18;;;;;;;;;1.00;1.00;;;;;-144.24;100.00;60536.00;4947743;28;62088;-72
2023/11/07 10:34:44;;;;;;;;;3.67;2.67;;;;;-144.24;100.00;60536.00;4947166;28;45621;-74
2023/11/07 10:37:10;;;;;;;;;3.00;1.00;;;;;-144.24;100.00;60536.00;4961381;28;45545;-72
2023/11/07 10:39:36;;;;;;;;;3.00;1.00;;;;;-144.24;100.00;60536.00;4939927;28;46305;-75
2023/11/07 10:42:18;;;;;;;;;3.00;1.00;;;;;-144.24;100.00;60536.00;4952295;28;45477;-75
2023/11/07 10:44:45;;;;;;;;;0.67;0.67;;;;;-144.24;100.00;60536.00;4951127;28;45494;-73
2023/11/07 10:47:10;;;;;;;;;2.00;1.00;;;;;-144.24;100.00;60536.00;4952061;28;45353;-73
2023/11/07 10:49:36;;;;;;;;;3.00;1.00;;;;;-144.24;100.00;60536.00;4970987;28;45469;-76
2023/11/07 10:52:03;;;;;;;;;4.00;2.00;;;;;-144.24;100.00;60536.00;4956406;28;45475;-74
2023/11/07 10:54:31;;;;;;;;;4.33;3.00;;;;;-144.24;100.00;60536.00;4956704;28;45447;-72
2023/11/07 10:57:01;;;;;;;;;5.00;3.00;;;;;-144.24;100.00;60536.00;4957671;28;45450;-73
2023/11/07 10:59:29;;;;;;;;;4.00;2.00;;;;;-144.24;100.00;60536.00;4969717;28;45574;-73
2023/11/07 11:01:59;;;;;;;;;5.00;2.33;;;;;-144.24;100.00;60536.00;4955081;28;45525;-72
2023/11/07 11:04:25;;;;;;;;;2.67;1.00;;;;;-144.24;100.00;60536.00;4948964;28;45495;-73
2023/11/07 11:06:57;;;;;;;;;1.00;1.00;;;;;-144.24;100.00;60536.00;4967643;28;67566;-74
2023/11/07 11:09:25;;;;;;;;;2.67;1.00;;;;;-144.24;100.00;60536.00;4950248;28;45872;-73